Time;durP1;ratioP1;P1;durP2;ratioP2;P2;SDS_P1;SDS_P2;PMS_P1;PMS_P2;Temp;Humidity;BMP_temperature;BMP_pressure;BME280_temperature;BME280_humidity;BME280_pressure;Samples;Min_cycle;Max_cycle;Signal;HPM_P1;HPM_P2
2024/02/19 00:00:38;;;;;;;15.40;9.90;;;;;;;6.70;100.00;100689.05;184979;1238;44625;-61
2024/02/19 00:05:01;;;;;;;22.70;13.00;;;;;;;6.59;100.00;100682.64;184929;1238;43557;-61
2024/02/19 00:09:03;;;;;;;17.20;11.30;;;;;;;6.53;100.00;100675.77;184730;1238;58094;-61
2024/02/19 00:13:11;;;;;;;15.40;11.50;;;;;;;6.62;100.00;100673.68;184820;1238;45893;-61
2024/02/19 00:17:14;;;;;;;12.90;9.70;;;;;;;6.69;100.00;100662.64;184880;1238;43604;-61
2024/02/19 00:21:21;;;;;;;14.60;9.90;;;;;;;6.79;100.00;100652.58;184953;1237;43569;-61
2024/02/19 00:25:24;;;;;;;16.10;10.60;;;;;;;6.91;100.00;100644.42;184875;1237;44809;-60
2024/02/19 00:29:26;;;;;;;14.40;11.30;;;;;;;7.07;100.00;100645.08;184856;1238;59775;-61
2024/02/19 00:33:57;;;;;;;17.40;11.20;;;;;;;7.21;100.00;100640.00;184817;1237;43770;-62
2024/02/19 00:37:58;;;;;;;17.30;12.10;;;;;;;7.34;100.00;100633.16;184669;1237;46143;-61
2024/02/19 00:42:04;;;;;;;17.30;14.20;;;;;;;7.39;100.00;100628.62;184796;1237;43723;-61
2024/02/19 00:46:07;;;;;;;17.90;11.70;;;;;;;7.43;100.00;100619.88;184800;1238;44412;-62
2024/02/19 00:50:09;;;;;;;16.40;12.70;;;;;;;7.47;100.00;100619.68;184860;1237;59147;-61
2024/02/19 00:54:13;;;;;;;14.80;11.40;;;;;;;7.53;100.00;100618.05;184860;1237;44844;-62
2024/02/19 00:58:14;;;;;;;15.70;11.60;;;;;;;7.61;100.00;100617.02;184842;1237;43675;-61
2024/02/19 01:02:18;;;;;;;17.50;11.90;;;;;;;7.61;100.00;100615.44;184636;1238;44957;-61
2024/02/19 01:06:21;;;;;;;17.40;12.90;;;;;;;7.59;100.00;100612.20;184719;1237;45886;-61
2024/02/19 01:10:23;;;;;;;14.50;11.50;;;;;;;7.46;100.00;100604.40;184626;1237;58374;-61
2024/02/19 01:14:26;;;;;;;15.60;12.30;;;;;;;7.54;100.00;100608.62;184649;1238;46083;-61
2024/02/19 01:18:28;;;;;;;17.40;10.30;;;;;;;7.60;100.00;100600.16;184743;1237;45909;-62
2024/02/19 01:22:31;;;;;;;17.50;14.00;;;;;;;7.69;100.00;100583.01;184856;1237;46047;-62
2024/02/19 01:26:32;;;;;;;24.80;16.40;;;;;;;7.77;100.00;100559.52;185283;1233;43507;-63
2024/02/19 01:30:34;;;;;;;18.70;13.80;;;;;;;7.91;100.00;100564.05;185361;1233;58407;-64
2024/02/19 01:34:39;;;;;;;18.40;14.30;;;;;;;7.96;100.00;100561.80;185146;1233;46174;-64
2024/02/19 01:38:42;;;;;;;20.30;17.10;;;;;;;8.01;100.00;100552.29;185317;1233;45998;-65
2024/02/19 01:42:44;;;;;;;17.40;15.60;;;;;;;8.03;100.00;100547.18;185348;1233;45962;-65
2024/02/19 01:46:47;;;;;;;19.70;15.80;;;;;;;8.02;100.00;100540.04;185217;1234;45851;-65
2024/02/19 01:50:49;;;;;;;17.00;13.10;;;;;;;8.03;100.00;100533.45;185232;1233;58430;-66
2024/02/19 01:54:52;;;;;;;18.10;14.80;;;;;;;8.04;100.00;100532.98;185131;1234;46087;-66
2024/02/19 01:59:09;;;;;;;17.00;13.50;;;;;;;8.06;100.00;100532.85;185161;1234;44658;-66
2024/02/19 02:03:17;;;;;;;18.20;12.90;;;;;;;8.08;100.00;100526.20;185074;1233;45976;-66
2024/02/19 02:07:20;;;;;;;16.10;12.10;;;;;;;8.09;100.00;100522.98;185251;1232;46067;-66
2024/02/19 02:11:22;;;;;;;17.60;15.70;;;;;;;8.07;100.00;100515.35;185083;1235;58435;-66
2024/02/19 02:15:24;;;;;;;17.20;13.60;;;;;;;8.03;100.00;100506.42;185098;1233;46008;-66
2024/02/19 02:19:30;;;;;;;18.30;13.10;;;;;;;7.99;100.00;100503.48;185251;1236;44487;-66
2024/02/19 02:23:34;;;;;;;18.10;13.40;;;;;;;7.99;100.00;100495.89;185037;1234;45912;-65
2024/02/19 02:27:37;;;;;;;14.40;11.70;;;;;;;7.99;100.00;100486.38;185160;1234;44585;-65
2024/02/19 02:31:40;;;;;;;17.40;13.40;;;;;;;7.97;100.00;100477.85;185104;1233;58268;-65
2024/02/19 02:35:42;;;;;;;18.70;13.80;;;;;;;7.95;100.00;100476.56;185096;1234;45976;-66
2024/02/19 02:39:52;;;;;;;18.00;15.60;;;;;;;7.94;100.00;100473.77;185147;1233;46090;-65
2024/02/19 02:43:54;;;;;;;18.00;14.70;;;;;;;7.91;100.00;100467.27;185135;1233;43753;-65
2024/02/19 02:47:56;;;;;;;19.30;15.00;;;;;;;7.91;100.00;100462.15;185103;1234;44622;-66
2024/02/19 02:51:59;;;;;;;14.40;12.10;;;;;;;7.93;100.00;100460.95;185092;1233;58516;-65
2024/02/19 02:56:00;;;;;;;13.00;11.50;;;;;;;7.89;100.00;100452.79;185130;1232;45974;-65
2024/02/19 03:00:04;;;;;;;14.20;12.60;;;;;;;7.84;100.00;100448.50;185249;1233;45948;-66
2024/02/19 03:04:06;;;;;;;15.80;14.20;;;;;;;7.80;100.00;100440.31;185100;1233;43536;-66
2024/02/19 03:08:07;;;;;;;21.00;14.80;;;;;;;7.78;100.00;100439.79;185211;1233;46149;-65
2024/02/19 03:12:09;;;;;;;16.70;13.40;;;;;;;7.77;100.00;100437.89;185170;1234;58798;-66
2024/02/19 03:16:18;;;;;;;17.20;11.60;;;;;;;7.75;100.00;100427.02;185259;1233;43717;-66
2024/02/19 03:20:23;;;;;;;23.20;15.20;;;;;;;7.74;100.00;100418.11;185207;1232;43617;-66
2024/02/19 03:24:26;;;;;;;19.30;11.80;;;;;;;7.74;100.00;100411.38;185213;1234;44750;-65
2024/02/19 03:28:28;;;;;;;15.20;11.60;;;;;;;7.68;100.00;100408.84;185144;1233;45950;-65
2024/02/19 03:32:30;;;;;;;15.00;11.50;;;;;;;7.70;100.00;100401.27;185226;1233;58501;-65
2024/02/19 03:36:32;;;;;;;13.70;10.40;;;;;;;7.73;100.00;100389.24;185263;1233;45901;-64
2024/02/19 03:40:33;;;;;;;10.20;9.20;;;;;;;7.72;100.00;100374.11;185172;1233;45991;-65
2024/02/19 03:44:35;;;;;;;13.30;8.80;;;;;;;7.73;100.00;100367.16;185161;1236;45960;-64
2024/02/19 03:48:37;;;;;;;16.50;9.20;;;;;;;7.68;100.00;100361.88;185153;1236;46078;-65
2024/02/19 03:52:40;;;;;;;12.60;10.30;;;;;;;7.74;100.00;100360.39;185086;1234;58879;-65
2024/02/19 03:56:48;;;;;;;17.40;12.60;;;;;;;7.70;100.00;100351.67;185234;1233;43912;-65
2024/02/19 04:00:51;;;;;;;11.30;9.00;;;;;;;7.77;100.00;100350.63;185120;1235;44855;-64
2024/02/19 04:04:53;;;;;;;10.30;8.90;;;;;;;7.79;100.00;100343.45;185259;1233;43476;-65
2024/02/19 04:08:55;;;;;;;9.20;7.50;;;;;;;7.83;100.00;100337.20;185284;1232;45902;-64
2024/02/19 04:12:57;;;;;;;9.30;8.30;;;;;;;7.86;100.00;100331.52;185184;1233;58553;-64
2024/02/19 04:16:59;;;;;;;9.40;8.50;;;;;;;7.87;100.00;100323.08;185404;1233;45929;-64
2024/02/19 04:21:00;;;;;;;8.00;7.20;;;;;;;7.95;100.00;100318.34;185165;1233;44566;-64
2024/02/19 04:25:06;;;;;;;9.90;6.40;;;;;;;7.96;100.00;100314.70;185214;1233;43798;-63
2024/02/19 04:29:11;;;;;;;9.90;6.20;;;;;;;7.98;100.00;100310.57;185322;1233;43733;-63
2024/02/19 04:33:15;;;;;;;8.70;6.70;;;;;;;7.98;100.00;100302.40;185165;1234;58447;-63
2024/02/19 04:37:19;;;;;;;7.30;6.00;;;;;;;8.03;100.00;100303.13;185226;1234;44794;-63
2024/02/19 04:41:22;;;;;;;5.70;5.10;;;;;;;8.05;100.00;100307.90;185170;1233;46071;-64
2024/02/19 04:45:23;;;;;;;6.00;5.10;;;;;;;8.09;100.00;100300.02;185166;1233;46216;-64
2024/02/19 04:49:27;;;;;;;4.80;3.90;;;;;;;8.14;100.00;100293.16;185131;1234;46016;-64
2024/02/19 04:53:29;;;;;;;6.40;4.80;;;;;;;8.15;100.00;100286.38;185119;1233;59027;-63
2024/02/19 04:57:33;;;;;;;5.90;4.70;;;;;;;8.18;100.00;100281.05;185100;1233;46073;-64
2024/02/19 05:01:37;;;;;;;4.60;4.20;;;;;;;8.23;100.00;100282.29;185240;1233;45005;-64
2024/02/19 05:05:41;;;;;;;5.60;4.40;;;;;;;8.23;100.00;100284.54;185252;1234;45190;-65
2024/02/19 05:09:43;;;;;;;6.30;5.30;;;;;;;8.24;100.00;100277.98;185202;1234;44961;-65
2024/02/19 05:13:45;;;;;;;5.80;4.60;;;;;;;8.26;100.00;100272.31;185130;1232;59531;-65
2024/02/19 05:17:47;;;;;;;4.90;3.90;;;;;;;8.26;100.00;100272.35;185123;1233;45196;-64
2024/02/19 05:21:49;;;;;;;4.40;3.80;;;;;;;8.27;100.00;100272.10;185224;1234;44885;-65
2024/02/19 05:25:50;;;;;;;5.00;4.60;;;;;;;8.31;100.00;100275.15;185315;1233;46074;-66
2024/02/19 05:29:52;;;;;;;6.30;4.50;;;;;;;8.32;100.00;100275.64;185208;1233;43599;-64
2024/02/19 05:33:54;;;;;;;3.10;2.80;;;;;;;8.35;100.00;100269.61;185196;1232;57487;-64
2024/02/19 05:38:45;;;;;;;4.60;4.10;;;;;;;8.37;100.00;100263.09;185228;1233;45866;-65
2024/02/19 05:42:47;;;;;;;7.60;3.90;;;;;;;8.42;100.00;100264.29;185138;1232;45884;-62
2024/02/19 05:46:55;;;;;;;7.00;4.40;;;;;;;8.48;100.00;100257.37;185275;1233;43535;-65
2024/02/19 05:50:57;;;;;;;5.30;4.50;;;;;;;8.52;100.00;100254.39;185138;1234;45944;-66
2024/02/19 05:55:01;;;;;;;3.70;3.30;;;;;;;8.55;100.00;100255.10;185182;1233;57871;-65
2024/02/19 05:59:04;;;;;;;4.20;3.80;;;;;;;8.58;100.00;100253.44;185126;1236;46133;-66
2024/02/19 06:03:08;;;;;;;5.30;3.10;;;;;;;8.59;100.00;100251.41;185250;1233;43705;-66
2024/02/19 06:07:09;;;;;;;5.40;3.30;;;;;;;8.60;100.00;100248.69;185118;1232;46078;-65
2024/02/19 06:11:11;;;;;;;3.60;3.10;;;;;;;8.60;100.00;100246.02;185119;1233;45973;-65
2024/02/19 06:15:19;;;;;;;4.50;4.00;;;;;;;8.61;100.00;100242.77;185060;1234;59163;-66
2024/02/19 06:19:21;;;;;;;4.30;2.90;;;;;;;8.62;100.00;100241.86;185135;1236;46071;-66
2024/02/19 06:24:23;;;;;;;3.60;2.90;;;;;;;8.61;100.00;100236.23;185171;1233;44991;-65
2024/02/19 06:28:26;;;;;;;4.90;3.70;;;;;;;8.60;100.00;100234.59;185189;1236;45947;-64
2024/02/19 06:32:27;;;;;;;4.90;3.60;;;;;;;8.57;100.00;100228.77;185184;1232;46434;-65
2024/02/19 06:36:29;;;;;;;9.90;4.80;;;;;;;8.60;100.00;100227.52;185138;1233;60542;-65
2024/02/19 06:40:31;;;;;;;6.10;4.20;;;;;;;8.67;100.00;100223.63;185191;1233;44184;-65
2024/02/19 06:44:33;;;;;;;8.80;6.20;;;;;;;8.74;100.00;100223.29;185131;1232;45224;-65
2024/02/19 06:48:34;;;;;;;5.40;4.00;;;;;;;8.81;100.00;100221.71;185137;1234;45976;-65
2024/02/19 06:52:36;;;;;;;5.00;4.20;;;;;;;8.83;100.00;100221.53;185160;1234;44801;-65
2024/02/19 06:56:37;;;;;;;4.00;3.70;;;;;;;8.85;100.00;100221.56;185186;1233;58102;-65
2024/02/19 07:00:39;;;;;;;3.90;3.50;;;;;;;8.91;100.00;100220.76;185272;1233;44522;-66
2024/02/19 07:04:41;;;;;;;4.40;3.90;;;;;;;8.95;100.00;100222.96;185498;1233;43780;-66
2024/02/19 07:08:42;;;;;;;5.60;4.50;;;;;;;8.99;100.00;100223.14;185462;1232;45886;-67
2024/02/19 07:12:44;;;;;;;5.20;4.40;;;;;;;9.01;100.00;100225.12;185447;1234;43433;-64
2024/02/19 07:16:50;;;;;;;5.20;3.60;;;;;;;9.05;100.00;100228.08;185472;1233;58582;-68
2024/02/19 07:20:52;;;;;;;3.20;2.80;;;;;;;9.04;100.00;100232.55;185375;1233;43563;-69
2024/02/19 07:30:41;;;;;;;2.10;1.90;;;;;;;9.15;100.00;100239.34;185436;1234;46034;-64
2024/02/19 07:40:29;;;;;;;1.50;1.20;;;;;;;9.71;100.00;100224.41;185394;1234;58451;-65
2024/02/19 07:45:05;;;;;;;2.30;1.40;;;;;;;9.81;100.00;100227.65;185518;1232;45978;-65
2024/02/19 07:49:08;;;;;;;2.80;1.40;;;;;;;9.83;100.00;100227.69;185428;1232;43605;-65
2024/02/19 07:53:19;;;;;;;2.50;1.70;;;;;;;9.87;100.00;100229.88;185394;1233;45313;-65
2024/02/19 07:57:21;;;;;;;2.10;1.80;;;;;;;9.89;100.00;100227.36;185444;1233;43807;-69
2024/02/19 08:01:50;;;;;;;2.50;1.70;;;;;;;9.88;100.00;100224.27;185411;1234;58416;-67
2024/02/19 08:05:52;;;;;;;2.10;1.80;;;;;;;9.87;100.00;100224.73;185608;1233;43778;-65
2024/02/19 08:10:20;;;;;;;2.10;1.60;;;;;;;9.76;100.00;100231.55;185547;1233;45188;-66
2024/02/19 08:14:22;;;;;;;3.00;2.20;;;;;;;9.58;100.00;100244.11;185515;1233;46014;-68
2024/02/19 08:18:24;;;;;;;2.10;2.00;;;;;;;9.46;100.00;100238.20;185399;1234;44923;-62
2024/02/19 08:22:34;;;;;;;2.10;1.90;;;;;;;9.58;100.00;100242.73;185264;1234;59541;-63
2024/02/19 08:26:36;;;;;;;1.60;1.40;;;;;;;9.64;100.00;100240.71;185131;1234;45854;-63
2024/02/19 08:30:38;;;;;;;1.70;1.60;;;;;;;9.69;100.00;100242.01;185250;1234;45921;-63
2024/02/19 08:34:41;;;;;;;2.10;0.90;;;;;;;9.77;100.00;100237.17;185151;1233;43696;-64
2024/02/19 08:38:59;;;;;;;1.10;0.80;;;;;;;9.88;100.00;100252.09;185072;1233;44819;-63
2024/02/19 08:43:00;;;;;;;1.00;0.90;;;;;;;9.94;100.00;100244.20;185018;1233;59860;-64
2024/02/19 08:47:08;;;;;;;2.10;1.00;;;;;;;9.91;100.00;100265.67;185103;1232;44605;-63
2024/02/19 08:51:10;;;;;;;0.80;0.60;;;;;;;9.74;100.00;100266.30;185098;1233;46011;-65
2024/02/19 08:55:12;;;;;;;0.70;0.50;;;;;;;9.58;100.00;100267.52;185185;1234;46029;-65
2024/02/19 08:59:15;;;;;;;2.00;0.40;;;;;;;9.53;100.00;100266.52;185121;1234;45899;-63
2024/02/19 09:03:18;;;;;;;1.30;0.60;;;;;;;9.43;100.00;100267.79;185165;1233;59015;-64
2024/02/19 09:07:23;;;;;;;0.60;0.50;;;;;;;9.37;100.00;100272.70;185126;1233;44432;-64
2024/02/19 09:11:25;;;;;;;0.40;0.30;;;;;;;9.36;100.00;100269.17;185171;1233;43976;-64
2024/02/19 09:15:27;;;;;;;0.70;0.50;;;;;;;9.37;100.00;100269.30;185211;1233;46066;-64
2024/02/19 09:19:32;;;;;;;0.60;0.40;;;;;;;9.35;100.00;100273.22;185292;1234;45860;-64
2024/02/19 09:23:35;;;;;;;1.40;0.70;;;;;;;9.29;100.00;100264.99;185114;1233;58648;-64
2024/02/19 09:27:37;;;;;;;0.90;0.60;;;;;;;9.26;100.00;100276.14;185180;1236;44377;-63
2024/02/19 09:31:38;;;;;;;1.50;0.80;;;;;;;9.26;100.00;100277.04;185191;1232;46002;-62
2024/02/19 09:36:34;;;;;;;1.60;1.00;;;;;;;9.35;100.00;100283.10;185130;1232;45897;-63
2024/02/19 09:40:36;;;;;;;0.90;0.70;;;;;;;9.45;100.00;100283.05;185222;1233;43754;-63
2024/02/19 09:44:49;;;;;;;1.00;0.90;;;;;;;9.40;100.00;100275.57;185185;1233;58095;-63
2024/02/19 09:48:55;;;;;;;0.50;0.50;;;;;;;9.36;100.00;100283.02;185540;1233;46005;-63
2024/02/19 09:53:11;;;;;;;1.50;1.00;;;;;;;9.29;100.00;100294.50;185127;1235;44026;-62
2024/02/19 09:57:17;;;;;;;1.40;0.50;;;;;;;9.23;100.00;100304.70;185168;1233;43713;-63
2024/02/19 10:01:20;;;;;;;4.50;1.30;;;;;;;9.32;100.00;100315.36;185036;1233;44963;-64
2024/02/19 10:05:23;;;;;;;1.10;0.80;;;;;;;9.44;100.00;100311.11;185118;1234;58665;-63
2024/02/19 10:09:52;;;;;;;2.70;1.20;;;;;;;9.43;100.00;100325.48;185126;1233;45982;-63
2024/02/19 10:13:56;;;;;;;0.60;0.50;;;;;;;9.33;100.00;100334.79;185079;1234;44951;-63
2024/02/19 10:17:59;;;;;;;0.80;0.80;;;;;;;9.26;100.00;100333.15;185083;1233;43798;-63
2024/02/19 10:22:58;;;;;;;2.40;0.80;;;;;;;9.16;100.00;100339.70;185068;1233;44757;-63
2024/02/19 10:27:00;;;;;;;1.00;0.80;;;;;;;9.14;100.00;100345.75;185144;1233;58189;-63
2024/02/19 10:31:03;;;;;;;1.50;0.70;;;;;;;9.12;100.00;100348.33;185775;1235;44915;-62
2024/02/19 10:35:07;;;;;;;2.30;1.00;;;;;;;9.23;100.00;100346.30;185018;1237;46025;-63
2024/02/19 10:39:09;;;;;;;0.60;0.60;;;;;;;9.31;100.00;100355.61;185132;1234;43711;-62
2024/02/19 10:43:12;;;;;;;0.90;0.60;;;;;;;9.29;100.00;100352.39;185029;1235;46028;-63
2024/02/19 10:47:15;;;;;;;1.20;1.10;;;;;;;9.18;100.00;100348.27;184805;1235;58307;-63
2024/02/19 10:51:22;;;;;;;2.40;1.40;;;;;;;9.14;100.00;100347.49;184872;1234;45066;-62
2024/02/19 10:55:28;;;;;;;2.20;1.50;;;;;;;9.22;100.00;100349.54;184987;1234;46084;-63
2024/02/19 10:59:46;;;;;;;1.30;1.20;;;;;;;9.20;100.00;100346.19;185123;1235;44529;-62
2024/02/19 11:03:49;;;;;;;1.20;1.20;;;;;;;9.25;100.00;100346.88;185007;1235;43738;-62
2024/02/19 11:07:52;;;;;;;1.20;1.10;;;;;;;9.36;100.00;100350.42;184941;1235;59391;-62
2024/02/19 11:11:57;;;;;;;1.80;1.60;;;;;;;9.50;100.00;100336.09;185139;1235;44606;-62
2024/02/19 11:16:01;;;;;;;1.20;1.00;;;;;;;9.64;100.00;100342.52;184987;1234;45995;-62
2024/02/19 11:20:04;;;;;;;1.50;0.80;;;;;;;9.71;100.00;100334.69;185021;1235;45261;-63
2024/02/19 11:24:07;;;;;;;1.30;0.60;;;;;;;9.74;100.00;100334.14;185028;1234;44487;-62
2024/02/19 11:28:12;;;;;;;1.10;0.70;;;;;;;9.75;100.00;100337.38;184863;1235;172787;-62
2024/02/19 11:32:17;;;;;;;2.10;0.70;;;;;;;9.73;100.00;100331.30;185022;1234;44853;-63
2024/02/19 11:36:25;;;;;;;2.20;1.20;;;;;;;9.57;100.00;100333.61;185078;1234;43695;-62
2024/02/19 11:40:32;;;;;;;1.20;0.90;;;;;;;9.60;100.00;100342.64;184987;1237;43580;-61
2024/02/19 11:44:38;;;;;;;0.80;0.80;;;;;;;9.55;100.00;100347.04;185040;1235;43661;-62
2024/02/19 11:48:40;;;;;;;0.60;0.60;;;;;;;9.41;100.00;100339.61;185010;1235;59585;-63
2024/02/19 11:52:45;;;;;;;0.80;0.30;;;;;;;9.12;100.00;100338.98;184965;1238;45308;-62
2024/02/19 11:56:54;;;;;;;1.20;0.70;;;;;;;8.92;100.00;100357.39;185041;1235;45992;-62
2024/02/19 12:00:57;;;;;;;1.10;0.90;;;;;;;8.87;100.00;100349.44;185009;1234;44595;-62
2024/02/19 12:04:59;;;;;;;0.40;0.40;;;;;;;8.87;100.00;100365.74;185072;1235;46184;-62
2024/02/19 12:09:03;;;;;;;0.80;0.40;;;;;;;8.74;100.00;100371.06;185038;1238;58603;-62
2024/02/19 12:13:05;;;;;;;2.30;1.50;;;;;;;8.84;100.00;100379.55;185075;1235;45967;-62
2024/02/19 12:17:10;;;;;;;0.90;0.70;;;;;;;8.93;100.00;100379.44;185048;1235;43477;-63
2024/02/19 12:21:12;;;;;;;1.70;0.90;;;;;;;8.84;100.00;100395.81;185006;1235;45843;-62
2024/02/19 12:25:14;;;;;;;2.10;0.50;;;;;;;8.87;100.00;100388.90;185061;1234;43821;-62
2024/02/19 12:29:15;;;;;;;1.50;0.60;;;;;;;8.67;100.00;100395.78;184968;1234;58445;-62
2024/02/19 12:33:17;;;;;;;1.20;1.10;;;;;;;8.28;100.00;100396.58;185084;1236;46042;-62
2024/02/19 12:37:20;;;;;;;3.50;2.20;;;;;;;8.16;100.00;100398.10;185071;1235;45990;-62
2024/02/19 12:41:23;;;;;;;1.30;0.90;;;;;;;8.28;100.00;100388.44;185093;1234;44830;-62
2024/02/19 12:45:25;;;;;;;1.40;0.90;;;;;;;8.29;100.00;100398.45;185086;1235;43493;-62
2024/02/19 12:49:27;;;;;;;1.80;1.30;;;;;;;8.35;100.00;100395.95;184953;1235;58439;-64
2024/02/19 12:53:29;;;;;;;0.90;0.70;;;;;;;8.43;100.00;100405.45;185022;1234;45977;-64
2024/02/19 12:57:31;;;;;;;1.40;1.20;;;;;;;8.52;100.00;100406.76;185121;1238;44947;-63
2024/02/19 13:01:33;;;;;;;2.20;1.50;;;;;;;8.58;100.00;100418.16;184998;1235;44134;-64
2024/02/19 13:05:39;;;;;;;2.80;1.30;;;;;;;8.46;100.00;100423.96;185100;1235;45941;-63
2024/02/19 13:09:42;;;;;;;1.20;1.10;;;;;;;8.49;100.00;100422.86;185168;1236;57361;-64
2024/02/19 13:13:46;;;;;;;1.90;1.70;;;;;;;8.60;100.00;100430.59;185116;1235;46101;-64
2024/02/19 13:17:48;;;;;;;2.40;2.00;;;;;;;8.61;100.00;100430.35;184971;1235;44894;-64
2024/02/19 13:22:21;;;;;;;2.70;1.80;;;;;;;8.59;100.00;100439.86;185073;1235;45092;-64
2024/02/19 13:26:23;;;;;;;1.80;1.70;;;;;;;8.46;100.00;100437.92;185005;1234;43662;-64
2024/02/19 13:30:25;;;;;;;3.60;2.40;;;;;;;8.27;100.00;100439.20;184899;1235;59310;-64
2024/02/19 13:34:26;;;;;;;1.10;1.00;;;;;;;8.10;100.00;100452.42;184832;1235;45961;-64
2024/02/19 13:38:29;;;;;;;1.60;1.20;;;;;;;7.82;100.00;100449.02;185040;1235;46507;-64
2024/02/19 13:42:33;;;;;;;2.00;1.20;;;;;;;7.73;100.00;100452.27;184917;1234;43732;-64
2024/02/19 13:46:37;;;;;;;2.40;0.90;;;;;;;7.57;100.00;100447.64;185050;1235;45903;-64
2024/02/19 13:50:40;;;;;;;1.00;0.60;;;;;;;7.59;100.00;100455.48;184948;1236;58709;-64
2024/02/19 13:55:06;;;;;;;2.60;1.40;;;;;;;7.65;100.00;100455.64;184973;1236;44826;-65
2024/02/19 13:59:10;;;;;;;2.40;1.60;;;;;;;7.74;100.00;100471.04;184918;1234;45055;-65
2024/02/19 14:03:14;;;;;;;1.10;0.90;;;;;;;7.88;100.00;100468.05;184954;1234;43690;-64
2024/02/19 14:07:16;;;;;;;1.60;1.30;;;;;;;7.99;100.00;100470.63;185003;1235;44702;-64
2024/02/19 14:11:20;;;;;;;2.10;1.00;;;;;;;8.06;100.00;100476.20;184895;1233;58030;-65
2024/02/19 14:15:24;;;;;;;3.60;1.60;;;;;;;8.14;100.00;100486.22;184988;1234;44515;-64
2024/02/19 14:19:27;;;;;;;1.20;1.10;;;;;;;8.23;100.00;100478.58;184995;1235;45976;-64
2024/02/19 14:23:30;;;;;;;1.90;1.10;;;;;;;8.28;100.00;100495.89;184961;1234;46054;-64
2024/02/19 14:27:32;;;;;;;1.30;1.20;;;;;;;8.31;100.00;100508.96;184992;1234;43551;-63
2024/02/19 14:31:34;;;;;;;0.80;0.60;;;;;;;8.34;100.00;100515.06;184932;1234;59529;-64
2024/02/19 14:35:36;;;;;;;1.90;1.60;;;;;;;8.28;100.00;100524.48;184991;1235;45953;-63
2024/02/19 14:39:38;;;;;;;1.70;0.90;;;;;;;8.29;100.00;100521.45;185060;1234;46015;-63
2024/02/19 14:43:46;;;;;;;1.00;1.00;;;;;;;8.21;100.00;100529.58;185153;1235;45922;-63
2024/02/19 14:52:37;;;;;;;2.90;1.60;;;;;;;8.02;100.00;100555.73;185757;1233;59371;-63
2024/02/19 14:56:41;;;;;;;1.20;0.90;;;;;;;7.97;100.00;100542.30;185187;1234;43653;-63
2024/02/19 15:00:45;;;;;;;1.30;0.80;;;;;;;7.93;100.00;100552.48;185045;1233;44840;-64
2024/02/19 15:04:51;;;;;;;3.70;2.70;;;;;;;7.88;100.00;100566.73;185092;1233;44622;-62
2024/02/19 15:09:09;;;;;;;13.60;10.70;;;;;;;7.90;100.00;100571.34;185074;1234;44579;-63
2024/02/19 15:13:10;;;;;;;1.50;1.20;;;;;;;8.00;100.00;100557.97;185107;1233;57280;-63
2024/02/19 15:17:13;;;;;;;3.40;2.10;;;;;;;7.96;100.00;100555.80;185154;1234;44180;-63
2024/02/19 15:21:14;;;;;;;1.80;1.50;;;;;;;7.89;100.00;100555.91;185130;1234;44809;-63
2024/02/19 15:25:16;;;;;;;1.70;1.40;;;;;;;7.82;100.00;100556.50;185160;1234;45049;-63
2024/02/19 15:34:04;;;;;;;4.20;2.60;;;;;;;7.72;100.00;100563.19;185030;1234;58723;-63
2024/02/19 15:38:20;;;;;;;3.00;2.50;;;;;;;7.71;100.00;100566.05;184767;1235;43765;-63
2024/02/19 15:42:22;;;;;;;1.80;1.70;;;;;;;7.74;100.00;100578.95;185077;1234;43567;-64
2024/02/19 15:46:52;;;;;;;1.20;1.10;;;;;;;7.78;100.00;100578.31;185055;1234;43912;-64
2024/02/19 15:50:56;;;;;;;5.60;2.60;;;;;;;7.82;100.00;100581.20;184999;1235;45893;-64
2024/02/19 15:55:03;;;;;;;5.30;2.00;;;;;;;7.84;100.00;100588.71;184775;1235;58149;-64
2024/02/19 15:59:06;;;;;;;3.30;2.50;;;;;;;7.84;100.00;100590.42;185031;1235;46066;-64
2024/02/19 16:03:08;;;;;;;1.80;1.70;;;;;;;7.82;100.00;100585.81;184981;1235;45846;-63
2024/02/19 16:07:09;;;;;;;2.60;1.70;;;;;;;7.83;100.00;100593.55;184626;1235;45997;-63
2024/02/19 16:11:15;;;;;;;2.30;1.90;;;;;;;7.81;100.00;100598.21;184693;1237;44852;-63
2024/02/19 16:15:17;;;;;;;3.90;2.50;;;;;;;7.75;100.00;100606.24;184799;1235;59677;-64
2024/02/19 16:19:21;;;;;;;2.30;2.00;;;;;;;7.69;100.00;100609.08;184892;1234;46456;-63
2024/02/19 16:23:24;;;;;;;2.60;2.10;;;;;;;7.73;100.00;100614.33;184776;1234;45974;-64
2024/02/19 16:27:30;;;;;;;2.10;1.90;;;;;;;7.75;100.00;100617.04;185082;1235;43672;-63
2024/02/19 16:31:39;;;;;;;1.90;1.20;;;;;;;7.71;100.00;100619.01;186082;1236;44379;-63
2024/02/19 16:35:46;;;;;;;2.20;1.70;;;;;;;7.70;100.00;100630.02;185485;1232;58001;-83
2024/02/19 16:39:50;;;;;;;2.00;1.80;;;;;;;7.64;100.00;100626.38;184390;1232;45799;-82
2024/02/19 16:43:52;;;;;;;1.80;1.70;;;;;;;7.63;100.00;100628.38;184316;1236;46053;-81
2024/02/19 16:47:54;;;;;;;3.50;2.30;;;;;;;7.65;100.00;100632.27;184307;1232;45922;-82
2024/02/19 16:51:56;;;;;;;3.10;2.60;;;;;;;7.72;100.00;100630.77;183747;1232;46011;-83
2024/02/19 16:55:58;;;;;;;2.90;2.20;;;;;;;7.78;100.00;100638.36;183759;1234;58684;-82
2024/02/19 17:00:00;;;;;;;2.20;2.00;;;;;;;7.77;100.00;100641.57;184221;1232;46048;-83
2024/02/19 17:04:04;;;;;;;3.80;2.00;;;;;;;7.79;100.00;100650.12;183598;1234;45959;-83
2024/02/19 17:08:12;;;;;;;;;;;;;;;7.80;100.00;100646.37;183633;1232;46329;-83
2024/02/19 17:12:15;;;;;;;4.80;4.10;;;;;;;7.85;100.00;100655.04;183255;1233;45919;-83
2024/02/19 17:16:19;;;;;;;3.60;2.70;;;;;;;7.86;100.00;100653.52;183283;1234;59236;-84
2024/02/19 17:20:21;;;;;;;5.10;4.30;;;;;;;7.93;100.00;100642.52;183149;1232;46061;-83
2024/02/19 17:24:23;;;;;;;3.60;2.80;;;;;;;7.93;100.00;100637.77;182924;1235;45880;-82
2024/02/19 17:28:26;;;;;;;3.50;2.70;;;;;;;7.91;100.00;100639.11;183163;1232;45913;-82
2024/02/19 17:32:29;;;;;;;5.40;2.80;;;;;;;7.96;100.00;100637.23;183027;1232;45993;-82
2024/02/19 17:36:34;;;;;;;3.50;2.40;;;;;;;8.03;100.00;100639.21;183478;1232;59086;-83
2024/02/19 17:40:36;;;;;;;4.40;2.70;;;;;;;8.01;100.00;100644.63;183354;1232;45953;-82
2024/02/19 17:44:41;;;;;;;4.10;2.10;;;;;;;8.06;100.00;100642.02;183484;1232;46088;-83
2024/02/19 17:48:46;;;;;;;3.60;2.70;;;;;;;8.05;100.00;100646.13;183370;1232;46029;-81
2024/02/19 17:52:52;;;;;;;2.50;2.20;;;;;;;8.09;100.00;100645.87;183105;1232;45967;-83
2024/02/19 17:56:53;;;;;;;2.00;1.80;;;;;;;8.10;100.00;100646.71;183093;1233;57911;-83
2024/02/19 18:00:55;;;;;;;4.60;3.00;;;;;;;8.08;100.00;100649.68;183812;1233;46018;-82
2024/02/19 18:05:05;;;;;;;6.80;2.80;;;;;;;8.01;100.00;100652.63;182593;1232;45976;-85
2024/02/19 18:09:09;;;;;;;4.10;2.60;;;;;;;7.87;100.00;100653.50;183076;1232;45979;-84
2024/02/19 18:13:11;;;;;;;2.90;2.60;;;;;;;7.85;100.00;100654.68;183341;1236;46035;-83
2024/02/19 18:17:14;;;;;;;5.20;3.20;;;;;;;7.86;100.00;100655.70;183794;1236;60584;-83
2024/02/19 18:21:20;;;;;;;2.90;2.70;;;;;;;7.84;100.00;100656.13;184175;1232;44071;-83
2024/02/19 18:25:22;;;;;;;6.20;3.20;;;;;;;7.75;100.00;100656.05;183189;1232;46029;-83
2024/02/19 18:29:24;;;;;;;3.60;3.30;;;;;;;7.71;100.00;100665.31;183523;1232;45963;-83
2024/02/19 18:33:28;;;;;;;3.70;3.20;;;;;;;7.65;100.00;100665.13;183358;1236;46052;-83
2024/02/19 18:37:30;;;;;;;4.30;3.20;;;;;;;7.63;100.00;100665.95;183207;1232;60621;-83
2024/02/19 18:41:32;;;;;;;4.10;3.70;;;;;;;7.70;100.00;100667.84;182983;1232;46070;-82
2024/02/19 18:45:34;;;;;;;3.30;3.00;;;;;;;7.72;100.00;100665.55;183561;1232;46136;-82
2024/02/19 18:49:36;;;;;;;5.30;4.80;;;;;;;7.71;100.00;100668.08;183488;1232;46173;-83
2024/02/19 18:53:41;;;;;;;5.60;4.20;;;;;;;7.82;100.00;100666.34;183937;1236;45995;-82
2024/02/19 18:57:46;;;;;;;4.50;3.20;;;;;;;7.90;100.00;100667.79;184367;1232;59321;-83
2024/02/19 19:01:48;;;;;;;4.00;2.90;;;;;;;7.94;100.00;100667.73;184436;1233;46103;-82